createdAt,value
2016-05-14T00:00:40.764Z,13.09
2016-05-14T00:01:37.892Z,13.11
2016-05-14T00:02:40.677Z,13.05
2016-05-14T00:03:40.616Z,13.08
2016-05-14T00:04:37.386Z,13.02
2016-05-14T00:05:37.965Z,13.02
2016-05-14T00:06:40.813Z,12.95
2016-05-14T00:07:40.783Z,12.95
2016-05-14T00:08:40.380Z,12.94
2016-05-14T00:09:40.320Z,12.84
2016-05-14T00:10:40.526Z,12.83
2016-05-14T00:11:40.388Z,12.8
2016-05-14T00:12:37.016Z,12.81
2016-05-14T00:13:37.269Z,12.9
2016-05-14T00:14:40.443Z,12.86
2016-05-14T00:15:40.149Z,12.83
2016-05-14T00:16:40.136Z,12.86
2016-05-14T00:17:43.296Z,12.9
2016-05-14T00:18:40.188Z,12.76
2016-05-14T00:19:36.988Z,12.76
2016-05-14T00:20:37.131Z,12.69
2016-05-14T00:21:36.884Z,12.68
2016-05-14T00:22:36.668Z,12.65
2016-05-14T00:23:36.624Z,12.61
2016-05-14T00:24:36.720Z,12.57
2016-05-14T00:25:36.675Z,12.5
2016-05-14T00:26:36.631Z,12.47
2016-05-14T00:27:36.431Z,12.54
2016-05-14T00:28:36.747Z,12.53
2016-05-14T00:29:36.499Z,12.4
2016-05-14T00:30:36.455Z,12.37
2016-05-14T00:31:36.223Z,12.44
2016-05-14T00:32:36.351Z,12.32
2016-05-14T00:33:36.478Z,12.36
2016-05-14T00:34:36.793Z,12.28
2016-05-14T00:35:39.500Z,12.25
2016-05-14T00:36:39.815Z,12.25
2016-05-14T00:37:39.396Z,12.18
2016-05-14T00:38:45.602Z,12.18
2016-05-14T00:39:36.073Z,12.2
2016-05-14T00:40:35.951Z,12.17
2016-05-14T00:41:38.907Z,12.21
2016-05-14T00:42:38.956Z,12.3
2016-05-14T00:43:38.802Z,12.17
2016-05-14T00:44:35.757Z,12.21
2016-05-14T00:45:41.746Z,12.17
2016-05-14T00:46:38.702Z,12.17
2016-05-14T00:47:35.610Z,12.18
2016-05-14T00:48:35.832Z,12.03
2016-05-14T00:49:38.490Z,12.07
2016-05-14T00:50:41.306Z,12.07
2016-05-14T00:51:35.605Z,11.97
2016-05-14T00:52:41.358Z,11.96
2016-05-14T00:53:38.298Z,11.91
2016-05-14T00:54:35.239Z,11.91
2016-05-14T00:55:38.195Z,11.89
2016-05-14T00:56:35.134Z,11.86
2016-05-14T00:57:38.105Z,11.85
2016-05-14T00:58:35.030Z,11.78
2016-05-14T00:59:34.986Z,11.78
2016-05-14T01:00:34.958Z,11.8
2016-05-14T01:01:34.898Z,11.73
2016-05-14T01:02:35.353Z,11.71
2016-05-14T01:03:34.997Z,11.7
2016-05-14T01:04:34.733Z,11.65
2016-05-14T01:05:34.689Z,11.71
2016-05-14T01:06:34.646Z,11.63
2016-05-14T01:07:34.617Z,11.68
2016-05-14T01:08:34.527Z,11.77
2016-05-14T01:09:34.325Z,11.76
2016-05-14T01:10:37.438Z,11.68
2016-05-14T01:11:34.393Z,11.62
2016-05-14T01:12:37.333Z,11.7
2016-05-14T01:13:34.290Z,11.67
2016-05-14T01:14:34.245Z,11.68
2016-05-14T01:15:34.186Z,11.71
2016-05-14T01:16:34.157Z,11.81
2016-05-14T01:17:34.300Z,11.93
2016-05-14T01:18:37.022Z,11.93
2016-05-14T01:19:36.837Z,11.85
2016-05-14T01:20:37.198Z,11.85
2016-05-14T01:21:33.889Z,11.86
2016-05-14T01:22:34.032Z,11.86
2016-05-14T01:23:33.785Z,11.93
2016-05-14T01:24:33.740Z,11.99
2016-05-14T01:25:39.915Z,11.93
2016-05-14T01:26:33.496Z,11.95
2016-05-14T01:27:33.592Z,11.78
2016-05-14T01:28:33.533Z,11.78
2016-05-14T01:29:33.536Z,11.85
2016-05-14T01:30:36.117Z,11.85
2016-05-14T01:31:33.401Z,11.74
2016-05-14T01:32:33.356Z,11.74
2016-05-14T01:33:36.484Z,11.67
2016-05-14T01:34:36.253Z,11.59
2016-05-14T01:35:39.192Z,11.55
2016-05-14T01:36:33.538Z,11.38
2016-05-14T01:37:33.088Z,11.4
2016-05-14T01:38:36.232Z,11.4
2016-05-14T01:39:42.000Z,11.43
2016-05-14T01:40:32.924Z,11.45
2016-05-14T01:41:35.897Z,11.4
2016-05-14T01:42:35.820Z,11.35
2016-05-14T01:43:35.979Z,11.34
2016-05-14T01:44:35.576Z,11.3
2016-05-14T01:45:35.891Z,11.45
2016-05-14T01:46:35.675Z,11.41
2016-05-14T01:47:32.584Z,11.43
2016-05-14T01:48:41.555Z,11.41
2016-05-14T01:49:35.479Z,11.49
2016-05-14T01:50:32.280Z,11.44
2016-05-14T01:51:32.376Z,11.4
2016-05-14T01:52:32.363Z,11.44
2016-05-14T01:53:32.115Z,11.45
2016-05-14T01:54:32.243Z,11.43
2016-05-14T01:55:35.184Z,11.41
2016-05-14T01:56:32.170Z,11.38
2016-05-14T01:57:32.112Z,11.4
2016-05-14T01:58:32.036Z,11.51
2016-05-14T01:59:31.835Z,11.45
2016-05-14T02:00:31.916Z,11.49
2016-05-14T02:01:37.747Z,11.41
2016-05-14T02:02:31.828Z,11.45
2016-05-14T02:03:35.017Z,11.49
2016-05-14T02:04:32.177Z,11.4
2016-05-14T02:05:31.725Z,11.41
2016-05-14T02:06:31.603Z,11.4
2016-05-14T02:07:31.263Z,11.44
2016-05-14T02:08:31.359Z,11.4
2016-05-14T02:09:34.503Z,11.44
2016-05-14T02:10:34.427Z,11.45
2016-05-14T02:11:37.571Z,11.53
2016-05-14T02:12:31.323Z,11.49
2016-05-14T02:13:30.966Z,11.51
2016-05-14T02:14:31.235Z,11.45
2016-05-14T02:15:31.019Z,11.51
2016-05-14T02:16:31.131Z,11.45
2016-05-14T02:17:31.477Z,11.45
2016-05-14T02:18:31.199Z,11.34
2016-05-14T02:19:31.357Z,11.41
2016-05-14T02:20:33.907Z,11.38
2016-05-14T02:21:33.879Z,11.25
2016-05-14T02:22:31.115Z,11.2
2016-05-14T02:23:30.790Z,11.08
2016-05-14T02:24:40.027Z,10.98
2016-05-14T02:25:33.655Z,11.01
2016-05-14T02:26:33.611Z,11.01
2016-05-14T02:27:30.550Z,11.01
2016-05-14T02:28:30.507Z,11
2016-05-14T02:29:36.338Z,11.04
2016-05-14T02:30:33.262Z,11
2016-05-14T02:31:30.343Z,10.9
2016-05-14T02:32:30.315Z,10.92
2016-05-14T02:33:42.286Z,10.86
2016-05-14T02:34:30.070Z,10.9
2016-05-14T02:35:30.369Z,10.87
2016-05-14T02:36:32.950Z,10.8
2016-05-14T02:37:30.125Z,10.83
2016-05-14T02:38:39.097Z,10.8
2016-05-14T02:39:33.240Z,10.72
2016-05-14T02:40:32.758Z,10.71
2016-05-14T02:41:29.682Z,10.76
2016-05-14T02:42:29.732Z,10.76
2016-05-14T02:43:32.907Z,10.76
2016-05-14T02:44:29.597Z,10.68
2016-05-14T02:45:32.333Z,10.65
2016-05-14T02:46:29.649Z,10.65
2016-05-14T02:47:29.527Z,10.76
2016-05-14T02:48:32.373Z,10.83
2016-05-14T02:49:29.454Z,10.82
2016-05-14T02:50:32.393Z,10.77
2016-05-14T02:51:32.396Z,10.84
2016-05-14T02:52:32.291Z,10.82
2016-05-14T02:53:29.245Z,10.82
2016-05-14T02:54:29.123Z,10.87
2016-05-14T02:55:28.970Z,10.89
2016-05-14T02:56:28.942Z,10.86
2016-05-14T02:57:29.023Z,10.92
2016-05-14T02:58:31.837Z,10.94
2016-05-14T02:59:29.137Z,10.95
2016-05-14T03:00:31.889Z,10.95
2016-05-14T03:01:31.830Z,10.84
2016-05-14T03:02:28.770Z,10.95
2016-05-14T03:03:28.708Z,11
2016-05-14T03:04:31.681Z,10.9
2016-05-14T03:05:31.637Z,10.79
2016-05-14T03:06:28.575Z,10.83
2016-05-14T03:07:31.564Z,10.83
2016-05-14T03:08:31.333Z,10.79
2016-05-14T03:09:31.273Z,10.67
2016-05-14T03:10:31.385Z,10.64
2016-05-14T03:11:31.544Z,10.61
2016-05-14T03:12:31.281Z,10.65
2016-05-14T03:13:31.253Z,10.59
2016-05-14T03:14:31.380Z,10.57
2016-05-14T03:15:31.180Z,10.58
2016-05-14T03:16:27.899Z,10.62
2016-05-14T03:17:28.011Z,10.59
2016-05-14T03:18:33.860Z,10.57
2016-05-14T03:19:27.766Z,10.58
2016-05-14T03:20:33.865Z,10.51
2016-05-14T03:21:31.024Z,10.57
2016-05-14T03:22:27.759Z,10.51
2016-05-14T03:23:36.796Z,10.49
2016-05-14T03:24:30.673Z,10.58
2016-05-14T03:25:27.595Z,10.55
2016-05-14T03:26:31.818Z,10.62
2016-05-14T03:27:28.100Z,10.59
2016-05-14T03:28:27.665Z,10.45
2016-05-14T03:29:30.405Z,10.53
2016-05-14T03:30:27.780Z,10.55
2016-05-14T03:31:30.301Z,10.55
2016-05-14T03:32:30.257Z,10.61
2016-05-14T03:33:29.900Z,10.53
2016-05-14T03:34:27.134Z,10.72
2016-05-14T03:35:30.093Z,10.41
2016-05-14T03:36:27.250Z,10.57
2016-05-14T03:37:27.049Z,10.59
2016-05-14T03:38:27.114Z,10.46
2016-05-14T03:39:26.883Z,10.57
2016-05-14T03:40:26.683Z,10.41
2016-05-14T03:41:26.981Z,10.34
2016-05-14T03:42:26.938Z,10.34
2016-05-14T03:43:26.816Z,10.38
2016-05-14T03:44:26.630Z,10.34
2016-05-14T03:45:26.571Z,10.42
2016-05-14T03:46:26.526Z,10.33
2016-05-14T03:47:26.326Z,10.3
2016-05-14T03:48:29.454Z,10.3
2016-05-14T03:49:29.362Z,10.27
2016-05-14T03:50:26.349Z,10.3
2016-05-14T03:51:26.274Z,10.31
2016-05-14T03:52:26.215Z,10.45
2016-05-14T03:53:26.170Z,10.38
2016-05-14T03:54:26.110Z,10.27
2016-05-14T03:55:26.066Z,10.41
2016-05-14T03:56:29.209Z,10.3
2016-05-14T03:57:28.947Z,10.43
2016-05-14T03:58:28.917Z,10.49
2016-05-14T03:59:31.924Z,10.48
2016-05-14T04:00:34.895Z,10.45
2016-05-14T04:01:28.754Z,10.36
2016-05-14T04:02:25.710Z,10.45
2016-05-14T04:03:28.509Z,10.41
2016-05-14T04:04:25.590Z,10.28
2016-05-14T04:05:28.734Z,10.36
2016-05-14T04:06:28.345Z,10.27
2016-05-14T04:07:25.505Z,10.17
2016-05-14T04:08:34.448Z,10.15
2016-05-14T04:09:28.386Z,10
2016-05-14T04:10:25.310Z,10.15
2016-05-14T04:11:25.078Z,10.07
2016-05-14T04:12:25.206Z,10
2016-05-14T04:13:25.349Z,10.02
2016-05-14T04:14:25.289Z,10.1
2016-05-14T04:15:28.041Z,10.15
2016-05-14T04:16:25.216Z,10.15
2016-05-14T04:17:32.394Z,10.1
2016-05-14T04:18:24.956Z,10.13
2016-05-14T04:19:27.677Z,10.13
2016-05-14T04:20:27.639Z,10.1
2016-05-14T04:21:27.795Z,10
2016-05-14T04:22:24.996Z,10.07
2016-05-14T04:23:24.604Z,10.07
2016-05-14T04:24:24.743Z,10.09
2016-05-14T04:25:27.926Z,10.06
2016-05-14T04:26:27.710Z,10.07
2016-05-14T04:27:24.587Z,10.02
2016-05-14T04:28:24.621Z,10.03
2016-05-14T04:29:24.593Z,10.1
2016-05-14T04:30:24.405Z,10.1
2016-05-14T04:31:27.524Z,10.09
2016-05-14T04:32:24.672Z,10.09
2016-05-14T04:33:24.431Z,10.05
2016-05-14T04:34:27.377Z,10.07
2016-05-14T04:35:24.338Z,10.09
2016-05-14T04:36:24.281Z,10.09
2016-05-14T04:37:24.301Z,10.09
2016-05-14T04:38:27.196Z,10.05
2016-05-14T04:39:27.560Z,10.05
2016-05-14T04:40:27.080Z,10.12
2016-05-14T04:41:26.881Z,10.03
2016-05-14T04:42:23.977Z,10.1
2016-05-14T04:43:23.935Z,10.17
2016-05-14T04:44:23.875Z,10.02
2016-05-14T04:45:23.817Z,10.03
2016-05-14T04:46:23.803Z,10
2016-05-14T04:47:23.713Z,10
2016-05-14T04:48:23.996Z,9.87
2016-05-14T04:49:26.610Z,9.9
2016-05-14T04:50:23.550Z,9.84
2016-05-14T04:51:23.349Z,9.91
2016-05-14T04:52:26.680Z,9.87
2016-05-14T04:53:26.417Z,9.9
2016-05-14T04:54:23.420Z,9.85
2016-05-14T04:55:26.329Z,10.02
2016-05-14T04:56:23.754Z,9.95
2016-05-14T04:57:26.194Z,10.12
2016-05-14T04:58:26.009Z,10.12
2016-05-14T04:59:26.106Z,10.1
2016-05-14T05:00:23.233Z,10.17
2016-05-14T05:01:22.986Z,10.3
2016-05-14T05:02:22.942Z,10.31
2016-05-14T05:03:28.928Z,10.28
2016-05-14T05:04:25.854Z,10.25
2016-05-14T05:05:22.825Z,10.3
2016-05-14T05:06:22.593Z,10.28
2016-05-14T05:07:28.706Z,10.34
2016-05-14T05:08:25.645Z,10.31
2016-05-14T05:09:25.664Z,10.34
2016-05-14T05:10:28.760Z,10.39
2016-05-14T05:11:28.700Z,10.41
2016-05-14T05:12:25.422Z,10.45
2016-05-14T05:13:22.378Z,10.55
2016-05-14T05:14:22.318Z,10.49
2016-05-14T05:15:22.274Z,10.57
2016-05-14T05:16:22.073Z,10.62
2016-05-14T05:17:22.029Z,10.58
2016-05-14T05:18:25.141Z,10.53
2016-05-14T05:19:22.065Z,10.53
2016-05-14T05:20:22.022Z,10.41
2016-05-14T05:21:21.977Z,10.34
2016-05-14T05:22:21.793Z,10.27
2016-05-14T05:23:21.702Z,10.36
2016-05-14T05:24:22.032Z,10.18
2016-05-14T05:25:21.754Z,10.25
2016-05-14T05:26:21.709Z,10.28
2016-05-14T05:27:21.665Z,10.33
2016-05-14T05:28:21.590Z,10.33
2016-05-14T05:29:24.546Z,10.41
2016-05-14T05:30:21.517Z,10.43
2016-05-14T05:31:21.676Z,10.57
2016-05-14T05:32:24.413Z,10.55
2016-05-14T05:33:21.056Z,10.49
2016-05-14T05:34:21.309Z,10.59
2016-05-14T05:35:21.234Z,10.59
2016-05-14T05:36:21.205Z,10.62
2016-05-14T05:37:21.348Z,10.68
2016-05-14T05:38:27.117Z,10.71
2016-05-14T05:39:20.869Z,10.86
2016-05-14T05:40:20.981Z,10.72
2016-05-14T05:41:23.952Z,10.68
2016-05-14T05:42:27.314Z,10.67
2016-05-14T05:43:20.709Z,10.77
2016-05-14T05:44:23.789Z,10.75
2016-05-14T05:45:20.730Z,10.68
2016-05-14T05:46:23.716Z,10.72
2016-05-14T05:47:20.328Z,10.82
2016-05-14T05:48:20.941Z,10.77
2016-05-14T05:49:20.583Z,10.76
2016-05-14T05:50:20.493Z,10.83
2016-05-14T05:51:23.432Z,10.83
2016-05-14T05:52:23.233Z,10.89
2016-05-14T05:53:26.189Z,10.89
2016-05-14T05:54:20.285Z,10.98
2016-05-14T05:55:23.241Z,10.89
2016-05-14T05:56:20.462Z,10.9
2016-05-14T05:57:20.308Z,11.04
2016-05-14T05:58:20.343Z,11
2016-05-14T05:59:26.017Z,10.97
2016-05-14T06:00:22.957Z,11.1
2016-05-14T06:01:19.975Z,11.16
2016-05-14T06:02:19.697Z,11.2
2016-05-14T06:03:22.840Z,11.12
2016-05-14T06:04:19.609Z,11.07
2016-05-14T06:05:22.737Z,11.07
2016-05-14T06:06:22.676Z,11.12
2016-05-14T06:07:19.648Z,10.98
2016-05-14T06:08:22.401Z,11.04
2016-05-14T06:09:19.544Z,11.02
2016-05-14T06:10:19.453Z,10.94
2016-05-14T06:11:19.424Z,10.98
2016-05-14T06:12:19.380Z,11
2016-05-14T06:13:19.305Z,11.1
2016-05-14T06:14:19.479Z,10.98
2016-05-14T06:15:22.232Z,11.01
2016-05-14T06:16:19.156Z,11.04
2016-05-14T06:17:19.097Z,11.05
2016-05-14T06:18:19.443Z,11.01
2016-05-14T06:19:22.008Z,11.08
2016-05-14T06:20:21.963Z,11.04
2016-05-14T06:21:21.904Z,11.04
2016-05-14T06:22:19.313Z,11
2016-05-14T06:23:21.816Z,11.02
2016-05-14T06:24:18.756Z,10.98
2016-05-14T06:25:18.696Z,11
2016-05-14T06:26:18.652Z,10.92
2016-05-14T06:27:19.123Z,10.92
2016-05-14T06:28:21.610Z,10.9
2016-05-14T06:29:24.519Z,10.9
2016-05-14T06:30:21.443Z,10.89
2016-05-14T06:31:18.384Z,11.01
2016-05-14T06:32:27.231Z,11.1
2016-05-14T06:33:30.718Z,11.15
2016-05-14T06:34:18.237Z,11.23
2016-05-14T06:35:21.035Z,11.25
2016-05-14T06:36:30.382Z,11.25
2016-05-14T06:37:20.947Z,11.26
2016-05-14T06:38:21.043Z,11.35
2016-05-14T06:39:17.828Z,11.43
2016-05-14T06:40:17.939Z,11.43
2016-05-14T06:41:17.942Z,11.56
2016-05-14T06:42:20.882Z,11.55
2016-05-14T06:43:17.775Z,11.56
2016-05-14T06:44:20.748Z,11.58
2016-05-14T06:45:17.672Z,11.55
2016-05-14T06:46:20.644Z,11.49
2016-05-14T06:47:20.599Z,11.34
2016-05-14T06:48:20.695Z,11.4
2016-05-14T06:49:17.183Z,11.37
2016-05-14T06:50:17.107Z,11.34
2016-05-14T06:51:20.219Z,11.41
2016-05-14T06:52:17.315Z,11.41
2016-05-14T06:53:17.303Z,11.34
2016-05-14T06:54:16.916Z,11.33
2016-05-14T06:55:20.183Z,11.35
2016-05-14T06:56:17.186Z,11.35
2016-05-14T06:57:17.094Z,11.3
2016-05-14T06:58:16.863Z,11.31
2016-05-14T06:59:19.975Z,11.3
2016-05-14T07:00:16.962Z,11.4
2016-05-14T07:01:16.871Z,11.41
2016-05-14T07:02:16.826Z,11.38
2016-05-14T07:03:16.845Z,11.48
2016-05-14T07:04:16.723Z,11.44
2016-05-14T07:05:19.678Z,11.43
2016-05-14T07:06:19.619Z,11.45
2016-05-14T07:07:16.575Z,11.41
2016-05-14T07:08:16.546Z,11.44
2016-05-14T07:09:16.471Z,11.52
2016-05-14T07:10:16.411Z,11.4
2016-05-14T07:11:16.367Z,11.51
2016-05-14T07:12:19.150Z,11.53
2016-05-14T07:13:16.762Z,11.7
2016-05-14T07:14:16.219Z,11.76
2016-05-14T07:15:16.175Z,11.76
2016-05-14T07:16:19.131Z,11.81
2016-05-14T07:17:16.117Z,11.81
2016-05-14T07:18:19.042Z,11.91
2016-05-14T07:19:19.295Z,11.83
2016-05-14T07:20:15.906Z,11.77
2016-05-14T07:21:18.847Z,11.76
2016-05-14T07:22:27.677Z,11.65
2016-05-14T07:23:15.789Z,11.59
2016-05-14T07:24:18.714Z,11.58
2016-05-14T07:25:15.842Z,11.55
2016-05-14T07:26:18.658Z,11.45
2016-05-14T07:27:18.393Z,11.43
2016-05-14T07:28:15.788Z,11.45
2016-05-14T07:29:15.463Z,11.43
2016-05-14T07:30:19.840Z,11.62
2016-05-14T07:31:15.358Z,11.65
2016-05-14T07:32:15.329Z,11.77
2016-05-14T07:33:15.254Z,11.78
2016-05-14T07:34:16.101Z,11.8
2016-05-14T07:35:15.196Z,11.76
2016-05-14T07:36:24.168Z,11.76
2016-05-14T07:37:15.093Z,11.78
2016-05-14T07:38:15.002Z,11.71
2016-05-14T07:39:15.005Z,11.73
2016-05-14T07:40:30.132Z,11.63
2016-05-14T07:41:14.854Z,11.67
2016-05-14T07:42:14.825Z,11.71
2016-05-14T07:43:14.749Z,11.81
2016-05-14T07:44:14.690Z,11.88
2016-05-14T07:45:17.848Z,11.93
2016-05-14T07:46:14.617Z,11.86
2016-05-14T07:47:14.761Z,11.74
2016-05-14T07:48:14.717Z,11.76
2016-05-14T07:49:17.329Z,11.71
2016-05-14T07:50:14.237Z,11.71
2016-05-14T07:51:14.365Z,11.63
2016-05-14T07:52:14.149Z,11.65
2016-05-14T07:53:14.261Z,11.71
2016-05-14T07:54:14.248Z,11.74
2016-05-14T07:55:17.172Z,11.77
2016-05-14T07:56:17.019Z,11.76
2016-05-14T07:57:14.053Z,11.7
2016-05-14T07:58:14.274Z,11.71
2016-05-14T07:59:17.152Z,11.8
2016-05-14T08:00:16.905Z,11.78
2016-05-14T08:01:13.846Z,11.76
2016-05-14T08:02:14.098Z,11.76
2016-05-14T08:03:13.741Z,11.85
2016-05-14T08:04:16.557Z,11.95
2016-05-14T08:05:13.856Z,11.97
2016-05-14T08:06:13.593Z,11.86
2016-05-14T08:07:13.392Z,11.86
2016-05-14T08:08:13.489Z,11.91
2016-05-14T08:09:13.460Z,11.89
2016-05-14T08:10:13.416Z,11.97
2016-05-14T08:11:19.591Z,11.95
2016-05-14T08:12:13.312Z,12.05
2016-05-14T08:13:16.252Z,12.17
2016-05-14T08:14:13.020Z,12.21
2016-05-14T08:15:13.148Z,12.21
2016-05-14T08:16:13.307Z,12.28
2016-05-14T08:17:13.044Z,12.32
2016-05-14T08:18:13.187Z,12.3
2016-05-14T08:19:13.362Z,12.26
2016-05-14T08:20:12.911Z,12.33
2016-05-14T08:21:12.836Z,12.4
2016-05-14T08:22:16.011Z,12.28
2016-05-14T08:23:15.733Z,12.26
2016-05-14T08:24:12.703Z,12.26
2016-05-14T08:25:12.644Z,12.15
2016-05-14T08:26:15.678Z,12.17
2016-05-14T08:27:12.946Z,12.17
2016-05-14T08:28:12.543Z,12.17
2016-05-14T08:29:15.466Z,12.14
2016-05-14T08:30:12.423Z,12.18
2016-05-14T08:31:12.332Z,12.25
2016-05-14T08:32:12.288Z,12.28
2016-05-14T08:33:12.322Z,12.43
2016-05-14T08:34:12.528Z,12.4
2016-05-14T08:35:15.155Z,12.54
2016-05-14T08:36:12.127Z,12.45
2016-05-14T08:37:12.035Z,12.63
2016-05-14T08:38:12.038Z,12.7
2016-05-14T08:39:11.963Z,12.55
2016-05-14T08:40:11.918Z,12.45
2016-05-14T08:41:11.703Z,12.44
2016-05-14T08:42:14.799Z,12.37
2016-05-14T08:43:11.598Z,12.3
2016-05-14T08:44:11.914Z,12.11
2016-05-14T08:45:11.651Z,12.2
2016-05-14T08:46:11.607Z,12.14
2016-05-14T08:47:14.984Z,12.14
2016-05-14T08:48:11.706Z,11.95
2016-05-14T08:49:11.818Z,11.99
2016-05-14T08:50:11.414Z,11.85
2016-05-14T08:51:11.355Z,11.76
2016-05-14T08:52:11.310Z,11.8
2016-05-14T08:53:11.297Z,11.76
2016-05-14T08:54:11.222Z,11.76
2016-05-14T08:55:11.162Z,11.71
2016-05-14T08:56:10.946Z,11.67
2016-05-14T08:57:16.902Z,11.41
2016-05-14T08:58:11.030Z,11.44
2016-05-14T08:59:11.142Z,11.45
2016-05-14T09:00:14.207Z,11.45
2016-05-14T09:01:11.053Z,11.44
2016-05-14T09:02:15.602Z,11.49
2016-05-14T09:03:13.965Z,11.52
2016-05-14T09:04:10.952Z,11.55
2016-05-14T09:05:13.657Z,11.48
2016-05-14T09:06:13.613Z,11.55
2016-05-14T09:07:10.600Z,11.51
2016-05-14T09:08:10.494Z,11.58
2016-05-14T09:09:10.450Z,11.51
2016-05-14T09:10:10.390Z,11.37
2016-05-14T09:11:10.330Z,11.26
2016-05-14T09:12:10.317Z,11.25
2016-05-14T09:13:13.445Z,11.22
2016-05-14T09:14:10.198Z,11.27
2016-05-14T09:15:10.200Z,11.25
2016-05-14T09:16:13.297Z,11.25
2016-05-14T09:17:13.049Z,11.19
2016-05-14T09:18:12.989Z,11.16
2016-05-14T09:19:10.321Z,11.26
2016-05-14T09:20:15.900Z,11.35
2016-05-14T09:21:21.717Z,11.26
2016-05-14T09:22:15.641Z,11.19
2016-05-14T09:23:09.737Z,11.3
2016-05-14T09:24:12.709Z,11.33
2016-05-14T09:25:09.649Z,11.34
2016-05-14T09:26:21.636Z,11.3
2016-05-14T09:27:12.591Z,11.27
2016-05-14T09:28:09.532Z,11.3
2016-05-14T09:29:09.441Z,11.34
2016-05-14T09:30:09.240Z,11.33
2016-05-14T09:31:09.322Z,11.27
2016-05-14T09:32:09.277Z,11.3
2016-05-14T09:33:09.561Z,11.22
2016-05-14T09:34:12.205Z,11.38
2016-05-14T09:35:12.144Z,11.48
2016-05-14T09:36:15.226Z,11.59
2016-05-14T09:37:12.243Z,11.62
2016-05-14T09:38:08.996Z,11.73
2016-05-14T09:39:11.937Z,11.8
2016-05-14T09:40:08.876Z,11.96
2016-05-14T09:41:11.817Z,12.07
2016-05-14T09:42:08.787Z,12.18
2016-05-14T09:43:08.556Z,12.26
2016-05-14T09:44:08.685Z,12.35
2016-05-14T09:45:08.640Z,12.4
2016-05-14T09:46:08.565Z,12.47
2016-05-14T09:47:11.536Z,12.47
2016-05-14T09:48:08.664Z,12.57
2016-05-14T09:49:14.745Z,12.7
2016-05-14T09:50:08.231Z,12.68
2016-05-14T09:51:14.359Z,12.65
2016-05-14T09:52:11.690Z,12.69
2016-05-14T09:53:11.083Z,12.73
2016-05-14T09:54:11.195Z,12.65
2016-05-14T09:55:14.558Z,12.65
2016-05-14T09:56:14.092Z,12.66
2016-05-14T09:57:08.032Z,12.75
2016-05-14T09:58:11.019Z,12.87
2016-05-14T09:59:14.131Z,12.93
2016-05-14T10:00:07.868Z,12.98
2016-05-14T10:01:11.339Z,13.03
2016-05-14T10:02:07.811Z,12.95
2016-05-14T10:03:10.719Z,12.81
2016-05-14T10:04:07.566Z,12.69
2016-05-14T10:05:10.647Z,12.53
2016-05-14T10:06:07.399Z,12.54
2016-05-14T10:07:10.355Z,12.58
2016-05-14T10:08:07.327Z,12.55
2016-05-14T10:09:10.268Z,12.62
2016-05-14T10:10:13.380Z,12.62
2016-05-14T10:11:07.162Z,12.58
2016-05-14T10:12:10.135Z,12.48
2016-05-14T10:13:10.294Z,12.54
2016-05-14T10:14:10.187Z,12.45
2016-05-14T10:15:10.127Z,12.5
2016-05-14T10:16:09.926Z,12.55
2016-05-14T10:17:07.039Z,12.61
2016-05-14T10:18:06.979Z,12.63
2016-05-14T10:19:06.966Z,12.54
2016-05-14T10:20:10.031Z,12.54
2016-05-14T10:21:06.955Z,12.5
2016-05-14T10:22:07.099Z,12.48
2016-05-14T10:23:06.993Z,12.57
2016-05-14T10:24:06.870Z,12.75
2016-05-14T10:25:06.733Z,12.76
2016-05-14T10:26:06.641Z,12.88
2016-05-14T10:27:06.753Z,13.03
2016-05-14T10:28:06.616Z,13.26
2016-05-14T10:29:06.539Z,13.23
2016-05-14T10:30:12.667Z,13.42
2016-05-14T10:31:06.561Z,13.54
2016-05-14T10:32:09.297Z,13.65
2016-05-14T10:33:06.754Z,13.68
2016-05-14T10:34:09.819Z,13.61
2016-05-14T10:35:06.712Z,13.67
2016-05-14T10:36:09.371Z,13.73
2016-05-14T10:37:06.843Z,13.68
2016-05-14T10:38:06.283Z,13.7
2016-05-14T10:39:09.255Z,13.76
2016-05-14T10:40:05.882Z,13.91
2016-05-14T10:41:08.854Z,14.05
2016-05-14T10:42:08.794Z,14.11
2016-05-14T10:43:08.577Z,14.12
2016-05-14T10:44:09.315Z,13.97
2016-05-14T10:45:05.707Z,13.91
2016-05-14T10:46:05.601Z,13.79
2016-05-14T10:47:05.542Z,13.73
2016-05-14T10:48:05.715Z,13.64
2016-05-14T10:49:05.156Z,13.64
2016-05-14T10:50:08.595Z,13.5
2016-05-14T10:51:08.411Z,13.39
2016-05-14T10:52:05.290Z,13.23
2016-05-14T10:53:05.479Z,13.36
2016-05-14T10:54:05.075Z,13.27
2016-05-14T10:55:11.031Z,13.24
2016-05-14T10:56:05.112Z,13.23
2016-05-14T10:57:05.053Z,13.23
2016-05-14T10:58:05.196Z,13.26
2016-05-14T10:59:07.964Z,13.19
2016-05-14T11:00:04.952Z,12.98
2016-05-14T11:01:07.705Z,12.98
2016-05-14T11:02:04.816Z,12.93
2016-05-14T11:03:07.772Z,12.83
2016-05-14T11:04:07.774Z,12.83
2016-05-14T11:05:10.668Z,12.87
2016-05-14T11:06:04.608Z,12.99
2016-05-14T11:07:04.766Z,12.93
2016-05-14T11:08:07.739Z,12.98
2016-05-14T11:09:04.662Z,12.99
2016-05-14T11:10:04.415Z,13.01
2016-05-14T11:11:07.357Z,13.06
2016-05-14T11:12:07.171Z,13.06
2016-05-14T11:13:04.408Z,13.13
2016-05-14T11:14:04.223Z,13.21
2016-05-14T11:15:04.163Z,13.24
2016-05-14T11:16:04.104Z,13.23
2016-05-14T11:17:04.326Z,13.21
2016-05-14T11:18:04.000Z,13.24
2016-05-14T11:19:10.456Z,13.2
2016-05-14T11:20:03.927Z,13.33
2016-05-14T11:21:03.867Z,13.43
2016-05-14T11:22:09.823Z,13.49
2016-05-14T11:23:06.622Z,13.58
2016-05-14T11:24:03.594Z,13.62
2016-05-14T11:25:06.659Z,13.67
2016-05-14T11:26:06.631Z,13.71
2016-05-14T11:27:03.790Z,13.82
2016-05-14T11:28:03.823Z,13.89
2016-05-14T11:29:03.669Z,13.75
2016-05-14T11:30:12.438Z,13.82
2016-05-14T11:31:03.222Z,13.76
2016-05-14T11:32:03.366Z,13.7
2016-05-14T11:33:06.290Z,13.57
2016-05-14T11:34:06.761Z,13.46
2016-05-14T11:35:06.030Z,13.43
2016-05-14T11:36:06.142Z,13.27
2016-05-14T11:37:03.066Z,13.27
2016-05-14T11:38:03.054Z,13.21
2016-05-14T11:39:05.994Z,13.24
2016-05-14T11:40:05.934Z,13.2
2016-05-14T11:41:06.077Z,13.23
2016-05-14T11:42:02.829Z,13.23
2016-05-14T11:43:08.801Z,13.24
2016-05-14T11:44:03.023Z,13.11
2016-05-14T11:45:05.807Z,13.11
2016-05-14T11:46:02.653Z,13.08
2016-05-14T11:47:06.062Z,12.87
2016-05-14T11:48:05.752Z,12.83
2016-05-14T11:49:02.771Z,12.87
2016-05-14T11:50:02.429Z,12.91
2016-05-14T11:51:05.385Z,12.91
2016-05-14T11:52:02.638Z,12.94
2016-05-14T11:53:02.298Z,12.88
2016-05-14T11:54:05.237Z,12.86
2016-05-14T11:55:02.709Z,12.87
2016-05-14T11:56:02.180Z,12.86
2016-05-14T11:57:08.105Z,12.88
2016-05-14T11:58:05.248Z,12.88
2016-05-14T11:59:02.000Z,12.83
2016-05-14T12:00:01.941Z,12.83
2016-05-14T12:01:01.802Z,12.9
2016-05-14T12:02:04.711Z,12.86
2016-05-14T12:03:01.996Z,12.81
2016-05-14T12:04:04.639Z,12.75
2016-05-14T12:05:01.704Z,12.73
2016-05-14T12:06:01.597Z,12.75
2016-05-14T12:07:02.038Z,12.86
2016-05-14T12:08:04.571Z,13.02
2016-05-14T12:09:07.513Z,13.2
2016-05-14T12:10:04.873Z,13.43
2016-05-14T12:11:05.048Z,13.5
2016-05-14T12:12:01.363Z,13.76
2016-05-14T12:13:04.319Z,13.71
2016-05-14T12:14:04.260Z,13.85
2016-05-14T12:15:07.216Z,13.86
2016-05-14T12:16:07.672Z,13.86
2016-05-14T12:17:00.940Z,13.95
2016-05-14T12:18:04.068Z,14.05
2016-05-14T12:19:04.460Z,14.05
2016-05-14T12:20:03.963Z,14.13
2016-05-14T12:21:00.966Z,14.22
2016-05-14T12:22:00.703Z,14.34
2016-05-14T12:23:00.800Z,14.44
2016-05-14T12:24:00.756Z,14.67
2016-05-14T12:25:00.742Z,14.78
2016-05-14T12:26:06.683Z,14.9
2016-05-14T12:27:00.607Z,14.93
2016-05-14T12:28:00.563Z,14.93
2016-05-14T12:29:00.503Z,14.93
2016-05-14T12:30:09.475Z,15.04
2016-05-14T12:31:03.414Z,15.05
2016-05-14T12:32:00.370Z,15.08
2016-05-14T12:33:00.310Z,14.93
2016-05-14T12:34:03.110Z,14.74
2016-05-14T12:35:03.238Z,14.66
2016-05-14T12:36:03.163Z,14.56
2016-05-14T12:37:05.993Z,14.52
2016-05-14T12:38:09.090Z,14.52
2016-05-14T12:39:00.233Z,14.61
2016-05-14T12:40:02.986Z,14.7
2016-05-14T12:41:02.942Z,14.63
2016-05-14T12:42:03.007Z,14.86
2016-05-14T12:43:05.666Z,14.99
2016-05-14T12:43:59.982Z,14.99
2016-05-14T12:44:59.780Z,14.89
2016-05-14T12:46:00.190Z,14.74
2016-05-14T12:46:59.817Z,14.73
2016-05-14T12:47:59.617Z,14.68
2016-05-14T12:48:59.385Z,14.67
2016-05-14T12:50:05.918Z,14.58
2016-05-14T12:50:59.141Z,14.56
2016-05-14T12:51:59.409Z,14.56
2016-05-14T12:52:59.364Z,14.59
2016-05-14T12:53:59.320Z,14.73
2016-05-14T12:54:59.104Z,14.87
2016-05-14T12:56:02.420Z,15.08